Home > Products > Valid Products > TAF

000
FTUS42 TJSJ 272300
TAFNCM
TAF
TNCM 272333Z 2800/2824 08012KT P6SM VCSH SCT018
      TEMPO 2801/2805 10016G24KT 5SM SHRA FEW015 BKN017
     FM281500 10014G25KT P6SM SCT020=



000
FTUS42 TJSJ 272300
TAFISX
TAF
TISX 272333Z 2800/2824 06011G23KT P6SM FEW025
     FM281400 08017G30KT P6SM SCT025
     FM282100 07012G20KT P6SM SCT028=



000
FTUS42 TJSJ 272300
TAFKPK
TAF
TKPK 272333Z 2800/2824 06012KT P6SM VCSH FEW018
      TEMPO 2800/2804 10011G24KT 3SM SHRA BKN017
     FM281000 11013KT P6SM SCT022
     FM282100 08010KT P6SM SCT020
      AMD NOT SKED 2802/2811=



000
FTUS42 TJSJ 272300
TAFJBQ
TAF
TJBQ 272333Z 2800/2824 10012G20KT P6SM SCT030
     FM280400 10009KT P6SM FEW025
     FM281200 08014G23KT P6SM SCT025
     FM281500 09020G30KT P6SM SCT022
     FM281700 09020G30KT P6SM VCSH SCT025 BKN035
     FM282200 09015G22KT P6SM SCT025 BKN040
      AMD NOT SKED 2802/2811=



000
FTUS42 TJSJ 272300
TAFIST
TAF
TIST 272333Z 2800/2824 10014G23KT P6SM SCT025
     FM281900 13012KT P6SM SCT025=



000
FTUS42 TJSJ 272300
TAFJPS
TAF
TJPS 272333Z 2800/2824 07007KT P6SM FEW030
     FM281500 13012KT P6SM FEW030 SCT060
     FM282200 08008KT P6SM SCT030
      AMD NOT SKED TIL 280300=



000
FTUS42 TJSJ 272300
TAFJMZ
TAF
TJMZ 272333Z 2800/2824 07006KT P6SM SCT040
     FM281530 25010KT P6SM SCT025 BKN040
     FM281700 07007KT P6SM -SHRA BKN030
     FM282200 08006KT P6SM SCT040
      AMD NOT SKED TIL 281100=



000
FTUS42 TJSJ 272300
TAFJSJ
TAF
TJSJ 272333Z 2800/2824 06014G20KT P6SM FEW028
     FM280800 09010KT P6SM VCSH SCT025 SCT040
     FM281500 08015G25KT P6SM SCT025 SCT070=



000
FTUS42 TJSJ 272100 AAB
TAFJMZ
TAF AMD
TJMZ 272107Z 2721/2818 07006KT P6SM SCT040
     FM281530 27010KT P6SM SCT025 BKN040
      AMD NOT SKED 2723/2811=



000
FTUS42 TJSJ 271800 AAA
TAFJMZ
TAF AMD
TJMZ 271859Z 2719/2818 22008KT P6SM VCSH SCT030
      TEMPO 2719/2721 3SM TSRA SCT020CB BKN030
     FM272100 11006KT P6SM FEW040
     FM281530 27010KT P6SM SCT025 BKN040
      AMD NOT SKED 2723/2811=



000
FTUS42 TJSJ 271800 AAA
TAFKPK
TAF AMD
TKPK 271859Z 2719/2818 07016KT P6SM VCSH FEW020
     FM272200 08011KT P6SM VCSH BKN020
      AMD NOT SKED 2802/2811=



000
FTUS42 TJSJ 271700
TAFNCM
TAF
TNCM 271738Z 2718/2818 09015G25KT P6SM VCSH SCT022
     FM272000 10010KT P6SM VCSH SCT018=



000
FTUS42 TJSJ 271700
TAFJBQ
TAF
TJBQ 271738Z 2718/2818 09016G22KT P6SM VCTS SCT020CB BKN040
     FM272200 11010KT P6SM SCT030
     FM281400 08013KT P6SM SCT025
      AMD NOT SKED 2802/2811=



000
FTUS42 TJSJ 271700
TAFISX
TAF
TISX 271738Z 2718/2818 07013G20KT P6SM VCSH SCT025 SCT040
     FM272300 06006KT P6SM FEW025
     FM281300 11013KT P6SM SCT025=



000
FTUS42 TJSJ 271700
TAFJPS
TAF
TJPS 271738Z 2718/2818 12016KT P6SM VCSH SCT025 SCT060
     FM272300 09007KT P6SM FEW030 SCT060
     FM281500 13012KT P6SM FEW030 SCT060
      AMD NOT SKED TIL 280300=



000
FTUS42 TJSJ 271700
TAFKPK
TAF
TKPK 271738Z 2718/2818 10014KT P6SM VCSH FEW020
     FM272200 08011KT P6SM VCSH BKN020
      AMD NOT SKED 2802/2811=



000
FTUS42 TJSJ 271700
TAFJSJ
TAF
TJSJ 271738Z 2718/2818 07016G24KT P6SM SCT030
     FM272200 10006KT P6SM SCT030
     FM281300 08012KT P6SM SCT025=



000
FTUS42 TJSJ 271700
TAFJMZ
TAF
TJMZ 271738Z 2718/2818 28009KT P6SM VCSH SCT025 BKN030
      TEMPO 2718/2721 3SM TSRA SCT020CB BKN030
     FM272100 11006KT P6SM FEW040
     FM281530 27010KT P6SM SCT025 BKN040
      AMD NOT SKED 2723/2811=



000
FTUS42 TJSJ 271700
TAFIST
TAF
TIST 271738Z 2718/2818 12010KT P6SM VCSH SCT025 SCT040
     FM272300 09008KT P6SM FEW025
     FM281300 13012KT P6SM SCT025=



000
FTUS42 TJSJ 271500 AAA
TAFJPS
TAF AMD
TJPS 271519Z 2715/2812 11012KT P6SM SCT030
     FM271700 14010G18KT P6SM VCSH SCT025 SCT060
     FM280400 05005KT P6SM VCSH SCT020 BKN050
      AMD NOT SKED TIL 280300=



000
FTUS42 TJSJ 271500 AAA
TAFKPK
TAF AMD
TKPK 271519Z 2715/2812 07016KT P6SM VCSH SCT018
     FM272200 08011KT P6SM VCSH BKN020
      AMD NOT SKED 2802/2811=



000
FTUS42 TJSJ 271500 AAA
TAFJSJ
TAF AMD
TJSJ 271519Z 2715/2812 09016KT P6SM VCSH FEW026 SCT035
     FM272000 08008KT P6SM SCT030
     FM280400 10005KT P6SM VCSH SCT028 SCT050=



000
FTUS42 TJSJ 271500 AAA
TAFNCM
TAF AMD
TNCM 271519Z 2715/2812 09014G24KT P6SM VCSH SCT020
      TEMPO 2715/2716 -SHRA BKN020
     FM272000 10012KT P6SM VCSH SCT018=



000
FTUS42 TJSJ 271100
TAFISX
TAF
TISX 271140Z 2712/2812 07010KT P6SM FEW025
     FM271300 10014KT P6SM SCT025
     FM271600 12013KT P6SM VCSH SCT025 SCT040=



000
FTUS42 TJSJ 271100
TAFNCM
TAF
TNCM 271140Z 2712/2812 08014KT P6SM FEW018
     FM271500 11014KT P6SM FEW022
     FM272000 10010KT P6SM VCSH SCT018=



000
FTUS42 TJSJ 271100
TAFJPS
TAF
TJPS 271140Z 2712/2812 05005KT P6SM FEW030
     FM271400 13012KT P6SM FEW030 SCT060
     FM271700 14010G18KT P6SM VCSH SCT025 SCT060
     FM280400 05005KT P6SM VCSH SCT020 BKN050
      AMD NOT SKED TIL 280300=



000
FTUS42 TJSJ 271100
TAFJMZ
TAF
TJMZ 271140Z 2712/2812 09005KT P6SM FEW030
     FM271530 27008KT P6SM VCSH SCT025 BKN030
      TEMPO 2718/2721 3SM TSRA SCT020CB BKN030
     FM272100 11006KT P6SM FEW040=



000
FTUS42 TJSJ 271100
TAFJSJ
TAF
TJSJ 271140Z 2712/2812 09006KT P6SM FEW030
     FM271400 10012KT P6SM SCT025 SCT050
     FM271700 07012KT P6SM SCT030
     FM280400 13005KT P6SM VCSH SCT028 SCT050=



000
FTUS42 TJSJ 271100
TAFIST
TAF
TIST 271140Z 2712/2812 11010KT P6SM FEW021 SCT030
     FM271400 11012KT P6SM SCT025
     FM271600 12013KT P6SM VCSH SCT025 SCT040=



000
FTUS42 TJSJ 271100
TAFJBQ
TAF
TJBQ 271140Z 2712/2812 10006KT P6SM FEW040
     FM271500 07013KT P6SM SCT025 SCT040
     FM271800 10010KT P6SM VCTS SCT020CB BKN040
     FM272200 11010KT P6SM SCT030
      AMD NOT SKED 2802/2811=



000
FTUS42 TJSJ 271100
TAFKPK
TAF
TKPK 271140Z 2712/2812 05016KT P6SM SCT016
     FM271300 11014KT P6SM VCSH FEW020
     FM272200 08011KT P6SM VCSH BKN020
      AMD NOT SKED 2802/2811=



000
FTUS42 TJSJ 270500
TAFISX
TAF
TISX 270520Z 2706/2806 09012KT P6SM SCT022
     FM271300 11013KT P6SM SCT025
     FM271600 12013KT P6SM VCSH SCT025 SCT040=



000
FTUS42 TJSJ 270500
TAFKPK
TAF
TKPK 270520Z 2706/2806 09013KT P6SM SCT020
     FM271300 11010KT P6SM VCSH FEW020
     FM272200 08011KT P6SM VCSH BKN020
      AMD NOT SKED TIL 271100=



000
FTUS42 TJSJ 270500
TAFNCM
TAF
TNCM 270520Z 2706/2806 09012KT P6SM FEW020
     FM271500 12013KT P6SM FEW022
     FM272000 10010KT P6SM VCSH SCT018=



000
FTUS42 TJSJ 270500
TAFIST
TAF
TIST 270520Z 2706/2806 11011KT P6SM VCSH FEW021 SCT040
      TEMPO 2706/2708 BKN029
     FM271100 13012KT P6SM SCT025
     FM271600 12013KT P6SM VCSH SCT025 SCT040=



000
FTUS42 TJSJ 270500
TAFJMZ
TAF
TJMZ 270520Z 2706/2806 16009KT P6SM FEW040
     FM271530 27010KT P6SM VCSH SCT025 BKN030
      TEMPO 2718/2721 3SM TSRA SCT020 BKN030CB
      AMD NOT SKED TIL 271100=



000
FTUS42 TJSJ 270500
TAFJSJ
TAF
TJSJ 270520Z 2706/2806 10005KT P6SM FEW025
     FM271400 10012KT P6SM SCT025 SCT050
     FM271700 07012KT P6SM SCT030
     FM280400 13005KT P6SM VCSH SCT028 SCT050=



000
FTUS42 TJSJ 270500
TAFJBQ
TAF
TJBQ 270520Z 2706/2806 12004KT P6SM FEW040
     FM271400 09013KT P6SM SCT025 SCT040
     FM271800 10010KT P6SM VCTS SCT020 BKN040CB
     FM272200 11010KT P6SM VCSH SCT020 BKN050
      AMD NOT SKED TIL 271100=



000
FTUS42 TJSJ 270500
TAFJPS
TAF
TJPS 270520Z 2706/2806 00000KT P6SM FEW030
     FM271400 13012KT P6SM FEW030 SCT060
     FM271700 14010G18KT P6SM VCSH SCT025 SCT060
     FM280400 05005KT P6SM VCSH SCT020 BKN050=



000
FTUS42 TJSJ 262300
TAFIST
TAF
TIST 262323Z 2700/2724 11011KT P6SM VCSH SCT025 SCT040
     FM271100 13012KT P6SM SCT025
     FM271600 12013KT P6SM VCSH SCT025 SCT040=



000
FTUS42 TJSJ 262300
TAFNCM
TAF
TNCM 262323Z 2700/2724 09011KT P6SM VCSH SCT019=



000
FTUS42 TJSJ 262300
TAFJBQ
TAF
TJBQ 262323Z 2700/2724 15008KT P6SM SCT040
     FM271400 09013KT P6SM SCT025 SCT040
     FM271800 10010KT P6SM VCTS SCT020 BKN040CB
     FM272200 11010KT P6SM VCSH SCT020 BKN050
      AMD NOT SKED 2702/2711=



000
FTUS42 TJSJ 262300
TAFJMZ
TAF
TJMZ 262323Z 2700/2724 16009KT P6SM FEW040
     FM271530 27010KT P6SM VCSH SCT025 BKN030 PROB30 2718/2721 3SM
      TSRA SCT020 BKN030CB
      AMD NOT SKED TIL 271100=



000
FTUS42 TJSJ 262300
TAFJPS
TAF
TJPS 262323Z 2700/2724 05005KT P6SM FEW025
     FM270400 05005KT P6SM VCSH SCT020 BKN050
     FM271400 13012KT P6SM FEW030 SCT060
     FM271700 14010G18KT P6SM VCSH SCT025 SCT060
      AMD NOT SKED TIL 270300=



000
FTUS42 TJSJ 262300
TAFKPK
TAF
TKPK 262323Z 2700/2724 07012KT P6SM VCSH FEW016
     FM272200 08011KT P6SM VCSH BKN020
      AMD NOT SKED 2702/2711=



000
FTUS42 TJSJ 262300
TAFISX
TAF
TISX 262323Z 2700/2724 10010KT P6SM FEW025
     FM271300 11013KT P6SM SCT025
     FM271600 12013KT P6SM VCSH SCT025 SCT040=



000
FTUS42 TJSJ 262300
TAFJSJ
TAF
TJSJ 262323Z 2700/2724 14005KT P6SM FEW030
     FM270400 13005KT P6SM VCSH SCT028 SCT050
     FM271400 10012KT P6SM SCT025 SCT050
     FM271700 07012KT P6SM SCT030=



000
FTUS42 TJSJ 261700
TAFIST
TAF
TIST 261740Z 2618/2718 14014KT P6SM SCT025
     FM262300 11011KT P6SM FEW025
     FM271300 13012KT P6SM SCT025=



000
FTUS42 TJSJ 261700
TAFKPK
TAF
TKPK 261740Z 2618/2718 11010KT P6SM VCSH SCT020
     FM262000 09010KT P6SM VCSH SCT018
      AMD NOT SKED 2702/2711=



000
FTUS42 TJSJ 261700
TAFJBQ
TAF
TJBQ 261740Z 2618/2718 04008KT P6SM VCTS SCT035CB
     FM262300 10006KT P6SM FEW025
     FM271400 08013KT P6SM SCT025
      AMD NOT SKED 2702/2711=



000
FTUS42 TJSJ 261700
TAFISX
TAF
TISX 261740Z 2618/2718 11013KT P6SM FEW025
     FM262300 10010KT P6SM FEW025
     FM271300 11013KT P6SM SCT025=



000
FTUS42 TJSJ 261700
TAFNCM
TAF
TNCM 261740Z 2618/2718 13014KT P6SM VCSH SCT020
     FM262000 10012KT P6SM VCSH SCT018=



000
FTUS42 TJSJ 261700
TAFJMZ
TAF
TJMZ 261740Z 2618/2718 15008KT P6SM VCSH SCT030
     FM262200 12006KT P6SM FEW040
     FM271530 27010KT P6SM SCT025 BKN040
      AMD NOT SKED 2623/2711=



000
FTUS42 TJSJ 261700
TAFJSJ
TAF
TJSJ 261740Z 2618/2718 12011G16KT P6SM FEW040 SCT050
     FM262200 12007KT P6SM FEW030
     FM271300 08012KT P6SM SCT025=



000
FTUS42 TJSJ 261700
TAFJPS
TAF
TJPS 261740Z 2618/2718 13011KT P6SM VCSH FEW025
     FM262300 05005KT P6SM FEW020
     FM271500 13012KT P6SM FEW030 SCT060
      AMD NOT SKED TIL 270300=



000
FTUS42 TJSJ 261100
TAFKPK
TAF
TKPK 261138Z 2612/2712 11010KT P6SM VCSH FEW020
     FM262000 09011KT P6SM VCSH SCT018
      AMD NOT SKED 2702/2711=



000
FTUS42 TJSJ 261100
TAFNCM
TAF
TNCM 261138Z 2612/2712 13014KT P6SM VCSH FEW020
     FM262000 10012KT P6SM VCSH SCT018=



000
FTUS42 TJSJ 261100
TAFJMZ
TAF
TJMZ 261138Z 2612/2712 09006KT P6SM FEW040
     FM261500 27009KT P6SM VCSH SCT040
     FM262200 12006KT P6SM FEW040
      AMD NOT SKED 2623/2711=



000
FTUS42 TJSJ 261100
TAFJSJ
TAF
TJSJ 261138Z 2612/2712 11006KT P6SM VCSH FEW030
     FM261400 13011G18KT P6SM SCT035
     FM262200 12007KT P6SM FEW030=



000
FTUS42 TJSJ 261100
TAFIST
TAF
TIST 261138Z 2612/2712 14015KT P6SM VCSH FEW025 SCT035
      TEMPO 2612/2614 5SM SHRA BKN025
     FM262300 11011KT P6SM FEW025=



000
FTUS42 TJSJ 261100
TAFJPS
TAF
TJPS 261138Z 2612/2712 VRB05KT P6SM VCSH SCT020 BKN050
      TEMPO 2612/2614 12006KT 5SM SHRA BKN020
     FM261600 13012KT P6SM VCSH FEW025
     FM262300 05005KT P6SM FEW020
      AMD NOT SKED TIL 270300=



000
FTUS42 TJSJ 261100
TAFJBQ
TAF
TJBQ 261138Z 2612/2712 14005KT P6SM FEW020
     FM261400 12009KT P6SM SCT045
      AMD NOT SKED 2702/2711=



000
FTUS42 TJSJ 261100
TAFISX
TAF
TISX 261138Z 2612/2712 12013KT P6SM VCSH FEW025
      TEMPO 2612/2614 5SM SHRA BKN020
     FM261400 13013KT P6SM SCT025
     FM262300 10010KT P6SM FEW025=



000
FTUS42 TJSJ 261000 AAA
TAFIST
TAF AMD
TIST 261031Z 2611/2706 14015KT P6SM VCSH FEW025 SCT035
      TEMPO 2611/2613 5SM SHRA BKN025
     FM262300 11011KT P6SM FEW025=



000
FTUS42 TJSJ 261000 AAB
TAFJPS
TAF AMD
TJPS 261021Z 2610/2706 VRB05KT P6SM VCSH SCT020 BKN050
      TEMPO 2610/2614 5SM SHRA BKN020
     FM261600 13012KT P6SM VCSH FEW025
     FM262300 05005KT P6SM FEW020
      AMD NOT SKED 2612/2703=



000
FTUS42 TJSJ 260800 AAA
TAFJPS
TAF AMD
TJPS 260832Z 2609/2706 VRB05KT P6SM VCSH SCT020 BKN050
      TEMPO 2609/2612 5SM SHRA BKN020
     FM261600 13012KT P6SM VCSH FEW025
     FM262300 05005KT P6SM FEW020
      AMD NOT SKED 2612/2703=



000
FTUS42 TJSJ 260800 AAA
TAFISX
TAF AMD
TISX 260830Z 2609/2706 12012KT P6SM VCSH FEW025
      TEMPO 2609/2612 5SM SHRA BKN018
     FM261400 13013KT P6SM SCT030
     FM262300 10010KT P6SM FEW025=



000
FTUS42 TJSJ 260500
TAFKPK
TAF
TKPK 260536Z 2606/2706 11010KT P6SM VCSH FEW020
     FM262000 09011KT P6SM VCSH SCT018
      AMD NOT SKED TIL 261100=



000
FTUS42 TJSJ 260500
TAFNCM
TAF
TNCM 260536Z 2606/2706 13011KT P6SM VCSH FEW020
     FM262000 10012KT P6SM VCSH SCT018=



000
FTUS42 TJSJ 260500
TAFJMZ
TAF
TJMZ 260536Z 2606/2706 15009KT P6SM FEW040
     FM262200 12006KT P6SM FEW040
      AMD NOT SKED TIL 261100=



000
FTUS42 TJSJ 260500
TAFJSJ
TAF
TJSJ 260536Z 2606/2706 14005KT P6SM FEW030
     FM261300 14011G19KT P6SM SCT035
     FM262200 12007KT P6SM FEW030=



000
FTUS42 TJSJ 260500
TAFJBQ
TAF
TJBQ 260536Z 2606/2706 14006KT P6SM FEW020
     FM261400 12009KT P6SM SCT045
      AMD NOT SKED TIL 261100=



000
FTUS42 TJSJ 260500
TAFJPS
TAF
TJPS 260536Z 2606/2706 12008KT P6SM VCSH SCT025
     FM261600 13012KT P6SM VCSH FEW025
     FM262300 05005KT P6SM FEW020
      AMD NOT SKED 2612/2703=



000
FTUS42 TJSJ 260500
TAFIST
TAF
TIST 260536Z 2606/2706 15011KT P6SM VCSH FEW025
     FM261200 14014KT P6SM VCSH SCT030
     FM262300 10011KT P6SM FEW025=



000
FTUS42 TJSJ 260500
TAFISX
TAF
TISX 260536Z 2606/2706 13009KT P6SM VCSH FEW025
     FM261400 13013KT P6SM SCT030
     FM262300 10010KT P6SM FEW025=



000
FTUS42 TJSJ 252300
TAFJSJ
TAF
TJSJ 252335Z 2600/2624 15006KT P6SM FEW030
     FM261300 14011KT P6SM SCT025 SCT070
     FM261800 13009G17KT P6SM VCSH FEW028 SCT035 SCT070
     FM262200 12008KT P6SM FEW040=



000
FTUS42 TJSJ 252300
TAFJMZ
TAF
TJMZ 252335Z 2600/2624 VRB05KT P6SM SCT040
     FM261530 15007KT P6SM FEW025 SCT040 SCT080
     FM262200 12006KT P6SM FEW035
      AMD NOT SKED TIL 261100=



000
FTUS42 TJSJ 252300
TAFJBQ
TAF
TJBQ 252335Z 2600/2624 16003KT P6SM FEW020 FEW050
     FM261400 11010KT P6SM SCT035 SCT070
      AMD NOT SKED 2602/2611=



000
FTUS42 TJSJ 252300
TAFJPS
TAF
TJPS 252335Z 2600/2624 05005KT P6SM VCSH SCT025
     FM261000 11010KT P6SM VCSH SCT025 BKN040
     FM261600 13012KT P6SM VCSH FEW025 BKN050
     FM262100 12010KT P6SM FEW030
      AMD NOT SKED TIL 260300=



000
FTUS42 TJSJ 252300
TAFISX
TAF
TISX 252335Z 2600/2624 11010KT P6SM FEW025
     FM260900 14008KT P6SM VCSH SCT025 BKN040
     FM261400 12013KT P6SM SCT025=



000
FTUS42 TJSJ 252300
TAFNCM
TAF
TNCM 252335Z 2600/2624 13010KT P6SM FEW020
     FM262000 09012KT P6SM VCSH SCT018 BKN025=



000
FTUS42 TJSJ 252300
TAFIST
TAF
TIST 252335Z 2600/2624 13009KT P6SM VCSH FEW025
     FM261200 13012KT P6SM VCSH SCT025 BKN040
     FM261500 14012KT P6SM SCT025=



000
FTUS42 TJSJ 252300
TAFKPK
TAF
TKPK 252335Z 2600/2624 10010KT P6SM FEW020
     FM262000 09012KT P6SM VCSH SCT018 BKN025
      AMD NOT SKED 2602/2611=



000
FTUS42 TJSJ 251900 AAA
TAFJPS
TAF AMD
TJPS 251903Z 2519/2618 15012KT P6SM SCT030
     FM252200 05005KT P6SM FEW020
     FM261500 13012KT P6SM FEW030 SCT060
      AMD NOT SKED TIL 260300=



000
FTUS42 TJSJ 251700
TAFJMZ
TAF
TJMZ 251730Z 2518/2618 23008KT P6SM SCT040
     FM252130 VRB05KT P6SM SCT040
     FM261530 27010KT P6SM SCT025 BKN040
      AMD NOT SKED 2523/2611=



000
FTUS42 TJSJ 251700
TAFNCM
TAF
TNCM 251730Z 2518/2618 13012KT P6SM VCSH SCT020
     FM252200 13010KT P6SM FEW020=



000
FTUS42 TJSJ 251700
TAFISX
TAF
TISX 251730Z 2518/2618 13012KT P6SM VCSH FEW025
     FM252300 11010KT P6SM FEW025
     FM261300 11013KT P6SM SCT025=



000
FTUS42 TJSJ 251700
TAFJBQ
TAF
TJBQ 251730Z 2518/2618 15010KT P6SM VCSH SCT025
     FM252200 VRB03KT P6SM SCT020
     FM261400 08010KT P6SM SCT025
      AMD NOT SKED 2602/2611=



000
FTUS42 TJSJ 251700
TAFJSJ
TAF
TJSJ 251730Z 2518/2618 12012G18KT P6SM SCT035
     FM252130 15005KT P6SM FEW030
     FM261300 08012KT P6SM SCT025=



000
FTUS42 TJSJ 251700
TAFKPK
TAF
TKPK 251730Z 2518/2618 10015KT P6SM VCSH SCT020
     FM252200 10010KT P6SM FEW020
      AMD NOT SKED 2602/2611=



000
FTUS42 TJSJ 251700
TAFJPS
TAF
TJPS 251730Z 2518/2618 11012KT P6SM SCT030
     FM252200 05005KT P6SM FEW020
     FM261500 13012KT P6SM FEW030 SCT060
      AMD NOT SKED TIL 260300=



000
FTUS42 TJSJ 251700
TAFIST
TAF
TIST 251730Z 2518/2618 15013KT P6SM VCSH FEW025
     FM252300 12009KT P6SM FEW025
     FM261300 13012KT P6SM SCT025=



000
FTUS42 TJSJ 251500 AAA
TAFJSJ
TAF AMD
TJSJ 251548Z 2516/2612 13012G18KT P6SM SCT035
     FM252130 15005KT P6SM FEW030=



000
FTUS42 TJSJ 251100
TAFJMZ
TAF
TJMZ 251139Z 2512/2612 11005KT P6SM SKC
     FM251400 20008KT P6SM SCT040
     FM252130 VRB05KT P6SM SCT040
      AMD NOT SKED TIL 251600=



000
FTUS42 TJSJ 251100
TAFJSJ
TAF
TJSJ 251139Z 2512/2612 VRB03KT P6SM FEW035
     FM251400 11012KT P6SM SCT035
     FM252130 15005KT P6SM FEW030=



000
FTUS42 TJSJ 251100
TAFJBQ
TAF
TJBQ 251139Z 2512/2612 VRB03KT P6SM SKC
     FM251430 15007KT P6SM VCSH SCT025
     FM252200 VRB03KT P6SM SCT020=



000
FTUS42 TJSJ 251100
TAFNCM
TAF
TNCM 251139Z 2512/2612 14012KT P6SM VCSH FEW020=



000
FTUS42 TJSJ 251100
TAFKPK
TAF
TKPK 251139Z 2512/2612 09010KT P6SM VCSH FEW020=



000
FTUS42 TJSJ 251100
TAFIST
TAF
TIST 251139Z 2512/2612 15010KT P6SM VCSH SCT025
     FM251400 15013KT P6SM FEW025
     FM252300 12009KT P6SM FEW025=



000
FTUS42 TJSJ 251100
TAFISX
TAF
TISX 251139Z 2512/2612 13008KT P6SM VCSH FEW025
     FM251400 13011KT P6SM FEW025
     FM252300 11010KT P6SM FEW025=



000
FTUS42 TJSJ 251100
TAFJPS
TAF
TJPS 251139Z 2512/2612 05005KT P6SM FEW020
     FM251400 15012KT P6SM FEW030
     FM252200 05005KT P6SM FEW020
      AMD NOT SKED TIL 260300=



000
FTUS42 TJSJ 250500
TAFKPK
TAF
TKPK 250531Z 2506/2606 08007KT P6SM FEW020
     FM251500 09010KT P6SM FEW022
      AMD NOT SKED TIL 251100=



000
FTUS42 TJSJ 250500
TAFJBQ
TAF
TJBQ 250531Z 2506/2606 VRB03KT P6SM SKC
     FM251430 15007KT P6SM VCSH SCT025
     FM252200 VRB03KT P6SM SCT020
      AMD NOT SKED TIL 251100=



000
FTUS42 TJSJ 250500
TAFISX
TAF
TISX 250531Z 2506/2606 11009KT P6SM FEW025
     FM251530 14012KT P6SM FEW025
     FM252300 11010KT P6SM FEW025=



000
FTUS42 TJSJ 250500
TAFJPS
TAF
TJPS 250531Z 2506/2606 05005KT P6SM FEW020
     FM251400 15011KT P6SM FEW030
     FM252200 05005KT P6SM FEW020
      AMD NOT SKED 2512/2603=



000
FTUS42 TJSJ 250500
TAFIST
TAF
TIST 250531Z 2506/2606 14010KT P6SM SCT025
     FM251530 14013KT P6SM FEW030
     FM252300 12009KT P6SM FEW025=



000
FTUS42 TJSJ 250500
TAFJMZ
TAF
TJMZ 250531Z 2506/2606 11005KT P6SM SKC
     FM251400 20008KT P6SM SCT040
     FM252130 VRB05KT P6SM SCT040
      AMD NOT SKED TIL 251600=



000
FTUS42 TJSJ 250500
TAFJSJ
TAF
TJSJ 250531Z 2506/2606 VRB03KT P6SM SKC
     FM251400 14010KT P6SM SCT030
     FM252130 15005KT P6SM FEW030=



000
FTUS42 TJSJ 250500
TAFNCM
TAF
TNCM 250531Z 2506/2606 11008KT P6SM FEW020
     FM251500 14011KT P6SM FEW022=



    US Dept of Commerce
    National Oceanic and Atmospheric Administration
    National Weather Service
    1325 East West Highway
    Silver Spring, MD 20910
    Page Author: NWS Internet Services Team
Disclaimer
Information Quality
Credits
Glossary
Privacy Policy
Freedom of Information Act (FOIA)
About Us
Career Opportunities